createdAt,value
2023-07-18T00:00:26.494Z,81.13
2023-07-18T00:01:26.459Z,81.13
2023-07-18T00:02:26.491Z,81.13
2023-07-18T00:03:26.600Z,81.13
2023-07-18T00:04:26.648Z,81.04
2023-07-18T00:05:26.776Z,80.99
2023-07-18T00:06:26.792Z,80.99
2023-07-18T00:07:26.889Z,80.99
2023-07-18T00:08:26.939Z,80.99
2023-07-18T00:09:27.011Z,81.04
2023-07-18T00:10:27.115Z,80.93
2023-07-18T00:11:27.203Z,80.93
2023-07-18T00:12:27.267Z,81.04
2023-07-18T00:13:27.352Z,81.24
2023-07-18T00:14:27.434Z,81.24
2023-07-18T00:15:27.566Z,81.04
2023-07-18T00:16:27.669Z,81.13
2023-07-18T00:17:27.785Z,81.13
2023-07-18T00:18:27.769Z,81.13
2023-07-18T00:19:27.858Z,81.13
2023-07-18T00:20:27.971Z,81.04
2023-07-18T00:21:28.045Z,80.93
2023-07-18T00:22:28.140Z,80.83
2023-07-18T00:23:28.181Z,80.83
2023-07-18T00:24:28.239Z,80.93
2023-07-18T00:25:28.387Z,81.24
2023-07-18T00:26:28.404Z,81.34
2023-07-18T00:27:28.499Z,81.27
2023-07-18T00:28:28.578Z,81.38
2023-07-18T00:29:28.658Z,81.48
2023-07-18T00:30:28.755Z,81.58
2023-07-18T00:31:28.883Z,81.58
2023-07-18T00:32:28.949Z,81.58
2023-07-18T00:33:28.959Z,81.58
2023-07-18T00:34:29.032Z,81.48
2023-07-18T00:35:29.127Z,81.38
2023-07-18T00:36:29.200Z,81.48
2023-07-18T00:37:29.273Z,81.48
2023-07-18T00:38:29.353Z,81.68
2023-07-18T00:39:29.443Z,81.78
2023-07-18T00:40:29.544Z,81.58
2023-07-18T00:41:29.598Z,81.27
2023-07-18T00:42:29.689Z,81.07
2023-07-18T00:43:29.785Z,81.48
2023-07-18T00:44:29.877Z,81.48
2023-07-18T00:45:29.979Z,81.52
2023-07-18T00:46:30.462Z,81.41
2023-07-18T00:47:30.107Z,81.11
2023-07-18T00:48:30.172Z,81.11
2023-07-18T00:49:30.270Z,81.11
2023-07-18T00:50:30.351Z,81.01
2023-07-18T00:51:30.407Z,80.71
2023-07-18T00:52:30.495Z,80.60
2023-07-18T00:53:30.596Z,80.60
2023-07-18T00:54:30.690Z,80.71
2023-07-18T00:55:30.814Z,80.91
2023-07-18T00:56:30.855Z,80.91
2023-07-18T00:57:30.946Z,80.80
2023-07-18T00:58:31.042Z,80.91
2023-07-18T00:59:31.138Z,80.91
2023-07-18T01:00:31.255Z,81.11
2023-07-18T01:01:31.365Z,81.21
2023-07-18T01:02:31.473Z,81.01
2023-07-18T01:03:31.558Z,80.84
2023-07-18T01:04:31.536Z,80.74
2023-07-18T01:05:31.643Z,81.09
2023-07-18T01:06:31.735Z,81.59
2023-07-18T01:07:31.800Z,81.79
2023-07-18T01:08:31.886Z,82.00
2023-07-18T01:09:31.995Z,82.00
2023-07-18T01:10:32.098Z,82.00
2023-07-18T01:11:32.153Z,82.20
2023-07-18T01:12:32.222Z,82.20
2023-07-18T01:13:32.309Z,82.20
2023-07-18T01:14:32.372Z,81.96
2023-07-18T01:15:32.559Z,81.86
2023-07-18T01:16:32.551Z,81.76
2023-07-18T01:17:32.678Z,81.86
2023-07-18T01:18:32.752Z,82.06
2023-07-18T01:19:32.853Z,82.06
2023-07-18T01:20:32.976Z,81.96
2023-07-18T01:21:33.009Z,81.96
2023-07-18T01:22:33.093Z,81.96
2023-07-18T01:23:33.175Z,81.96
2023-07-18T01:24:33.233Z,82.06
2023-07-18T01:25:33.349Z,81.86
2023-07-18T01:26:33.421Z,81.76
2023-07-18T01:27:33.522Z,81.66
2023-07-18T01:28:33.604Z,81.56
2023-07-18T01:29:33.693Z,81.45
2023-07-18T01:30:33.773Z,81.56
2023-07-18T01:31:33.897Z,81.45
2023-07-18T01:32:33.913Z,81.25
2023-07-18T01:33:34.004Z,81.39
2023-07-18T01:34:34.137Z,81.39
2023-07-18T01:35:34.200Z,81.70
2023-07-18T01:36:34.275Z,81.90
2023-07-18T01:37:34.347Z,82.20
2023-07-18T01:38:34.419Z,82.31
2023-07-18T01:39:34.516Z,82.40
2023-07-18T01:40:34.631Z,82.51
2023-07-18T01:41:34.684Z,82.61
2023-07-18T01:42:34.756Z,82.57
2023-07-18T01:43:34.810Z,82.47
2023-07-18T01:44:34.954Z,82.61
2023-07-18T01:45:35.014Z,82.81
2023-07-18T01:46:35.100Z,82.92
2023-07-18T01:47:35.212Z,82.92
2023-07-18T01:48:35.218Z,82.71
2023-07-18T01:49:35.324Z,83.06
2023-07-18T01:50:35.402Z,83.15
2023-07-18T01:51:35.450Z,83.36
2023-07-18T01:52:35.535Z,83.36
2023-07-18T01:53:35.599Z,83.12
2023-07-18T01:54:35.686Z,83.01
2023-07-18T01:55:35.764Z,83.01
2023-07-18T01:56:35.828Z,83.01
2023-07-18T01:57:35.888Z,82.92
2023-07-18T01:58:35.995Z,83.01
2023-07-18T01:59:36.076Z,83.01
2023-07-18T02:00:36.223Z,82.92
2023-07-18T02:01:36.256Z,82.92
2023-07-18T02:02:36.363Z,82.81
2023-07-18T02:03:36.387Z,82.71
2023-07-18T02:04:36.474Z,82.51
2023-07-18T02:05:36.545Z,82.31
2023-07-18T02:06:36.607Z,82.24
2023-07-18T02:07:36.673Z,82.24
2023-07-18T02:08:36.769Z,82.24
2023-07-18T02:09:36.827Z,82.34
2023-07-18T02:10:36.936Z,82.34
2023-07-18T02:11:36.987Z,82.65
2023-07-18T02:12:37.090Z,82.85
2023-07-18T02:13:37.156Z,82.85
2023-07-18T02:14:37.257Z,82.95
2023-07-18T02:15:37.339Z,83.06
2023-07-18T02:16:37.432Z,82.95
2023-07-18T02:17:37.522Z,83.20
2023-07-18T02:18:37.530Z,83.40
2023-07-18T02:19:37.622Z,83.70
2023-07-18T02:20:37.743Z,83.60
2023-07-18T02:21:37.793Z,83.60
2023-07-18T02:22:37.894Z,83.81
2023-07-18T02:23:37.961Z,83.87
2023-07-18T02:24:38.059Z,83.76
2023-07-18T02:25:38.163Z,83.76
2023-07-18T02:26:38.253Z,83.76
2023-07-18T02:27:38.319Z,83.67
2023-07-18T02:28:38.421Z,83.67
2023-07-18T02:29:38.514Z,83.67
2023-07-18T02:30:38.610Z,83.76
2023-07-18T02:31:38.650Z,83.67
2023-07-18T02:32:38.791Z,83.76
2023-07-18T02:33:38.795Z,83.76
2023-07-18T02:34:38.862Z,83.56
2023-07-18T02:35:38.954Z,83.46
2023-07-18T02:36:39.045Z,83.56
2023-07-18T02:37:39.109Z,83.50
2023-07-18T02:38:39.206Z,83.60
2023-07-18T02:39:39.263Z,83.67
2023-07-18T02:40:39.395Z,83.87
2023-07-18T02:41:39.448Z,84.01
2023-07-18T02:42:40.129Z,84.11
2023-07-18T02:43:39.605Z,84.21
2023-07-18T02:44:39.670Z,84.31
2023-07-18T02:45:39.747Z,84.31
2023-07-18T02:46:39.854Z,84.52
2023-07-18T02:47:40.164Z,84.62
2023-07-18T02:48:39.978Z,84.72
2023-07-18T02:49:40.049Z,84.52
2023-07-18T02:50:40.163Z,84.42
2023-07-18T02:51:40.214Z,84.42
2023-07-18T02:52:40.364Z,84.52
2023-07-18T02:53:40.355Z,84.42
2023-07-18T02:54:40.459Z,84.21
2023-07-18T02:55:40.561Z,84.11
2023-07-18T02:56:40.622Z,83.91
2023-07-18T02:57:40.720Z,83.70
2023-07-18T02:58:40.773Z,83.50
2023-07-18T02:59:40.839Z,83.40
2023-07-18T03:00:40.957Z,83.40
2023-07-18T03:01:40.994Z,83.50
2023-07-18T03:02:41.156Z,83.74
2023-07-18T03:03:41.162Z,83.84
2023-07-18T03:04:41.184Z,84.25
2023-07-18T03:05:41.277Z,84.42
2023-07-18T03:06:41.343Z,84.42
2023-07-18T03:07:41.436Z,84.52
2023-07-18T03:08:41.495Z,84.42
2023-07-18T03:09:41.563Z,84.42
2023-07-18T03:10:41.672Z,84.31
2023-07-18T03:11:41.737Z,84.35
2023-07-18T03:12:41.793Z,84.66
2023-07-18T03:13:41.868Z,84.66
2023-07-18T03:14:41.938Z,84.45
2023-07-18T03:15:42.151Z,84.56
2023-07-18T03:16:42.183Z,84.45
2023-07-18T03:17:42.179Z,84.45
2023-07-18T03:18:42.230Z,84.35
2023-07-18T03:19:42.289Z,84.25
2023-07-18T03:20:42.738Z,84.15
2023-07-18T03:21:42.450Z,84.15
2023-07-18T03:22:42.544Z,83.81
2023-07-18T03:23:42.585Z,83.60
2023-07-18T03:24:42.668Z,83.60
2023-07-18T03:25:42.938Z,83.40
2023-07-18T03:26:42.850Z,83.40
2023-07-18T03:27:42.905Z,83.40
2023-07-18T03:28:43.040Z,83.29
2023-07-18T03:29:43.068Z,83.29
2023-07-18T03:30:43.425Z,83.29
2023-07-18T03:31:43.239Z,83.29
2023-07-18T03:32:43.349Z,83.20
2023-07-18T03:33:43.379Z,83.09
2023-07-18T03:34:43.447Z,83.44
2023-07-18T03:35:43.846Z,83.74
2023-07-18T03:36:43.589Z,83.95
2023-07-18T03:37:43.696Z,84.05
2023-07-18T03:38:43.765Z,84.15
2023-07-18T03:39:43.846Z,84.15
2023-07-18T03:40:43.931Z,84.25
2023-07-18T03:41:43.958Z,84.15
2023-07-18T03:42:44.060Z,84.15
2023-07-18T03:43:44.124Z,84.05
2023-07-18T03:44:44.198Z,84.05
2023-07-18T03:45:44.293Z,83.91
2023-07-18T03:46:44.363Z,84.01
2023-07-18T03:47:44.412Z,84.11
2023-07-18T03:48:44.539Z,84.21
2023-07-18T03:49:44.539Z,84.21
2023-07-18T03:50:44.618Z,84.25
2023-07-18T03:51:44.680Z,84.05
2023-07-18T03:52:44.773Z,84.01
2023-07-18T03:53:44.811Z,84.01
2023-07-18T03:54:44.878Z,84.05
2023-07-18T03:55:44.979Z,84.15
2023-07-18T03:56:45.026Z,84.01
2023-07-18T03:57:45.098Z,83.91
2023-07-18T03:58:45.185Z,83.70
2023-07-18T03:59:45.269Z,83.50
2023-07-18T04:00:45.364Z,83.60
2023-07-18T04:01:45.449Z,83.40
2023-07-18T04:02:47.253Z,83.20
2023-07-18T04:03:45.574Z,83.20
2023-07-18T04:04:45.641Z,83.20
2023-07-18T04:05:45.738Z,83.20
2023-07-18T04:06:45.795Z,83.20
2023-07-18T04:07:45.853Z,83.29
2023-07-18T04:08:45.950Z,83.50
2023-07-18T04:09:46.013Z,83.40
2023-07-18T04:10:46.130Z,83.26
2023-07-18T04:11:46.172Z,83.06
2023-07-18T04:12:46.286Z,83.06
2023-07-18T04:13:46.315Z,82.95
2023-07-18T04:14:46.409Z,82.85
2023-07-18T04:15:46.551Z,82.75
2023-07-18T04:16:46.656Z,82.75
2023-07-18T04:17:46.705Z,82.75
2023-07-18T04:18:46.745Z,82.65
2023-07-18T04:19:46.837Z,82.65
2023-07-18T04:20:46.945Z,82.85
2023-07-18T04:21:46.996Z,82.95
2023-07-18T04:22:47.149Z,82.95
2023-07-18T04:23:47.170Z,82.95
2023-07-18T04:24:47.259Z,82.95
2023-07-18T04:25:47.361Z,82.85
2023-07-18T04:26:47.442Z,82.75
2023-07-18T04:27:47.537Z,82.75
2023-07-18T04:28:47.618Z,82.71
2023-07-18T04:29:47.726Z,82.65
2023-07-18T04:30:47.822Z,82.71
2023-07-18T04:31:47.966Z,82.71
2023-07-18T04:32:48.166Z,82.71
2023-07-18T04:33:48.030Z,82.71
2023-07-18T04:34:48.107Z,82.61
2023-07-18T04:35:48.208Z,82.61
2023-07-18T04:36:48.292Z,82.51
2023-07-18T04:37:48.337Z,82.40
2023-07-18T04:38:48.410Z,82.26
2023-07-18T04:39:48.484Z,82.26
2023-07-18T04:40:48.576Z,82.26
2023-07-18T04:41:55.169Z,82.26
2023-07-18T04:42:48.726Z,82.06
2023-07-18T04:43:48.807Z,81.96
2023-07-18T04:44:48.896Z,82.06
2023-07-18T04:45:49.066Z,82.06
2023-07-18T04:46:49.102Z,81.82
2023-07-18T04:47:49.187Z,81.72
2023-07-18T04:48:49.207Z,81.62
2023-07-18T04:49:49.310Z,81.62
2023-07-18T04:50:49.370Z,81.62
2023-07-18T04:51:49.440Z,81.62
2023-07-18T04:52:49.512Z,81.62
2023-07-18T04:53:49.605Z,81.72
2023-07-18T04:54:49.667Z,81.72
2023-07-18T04:55:49.742Z,81.72
2023-07-18T04:56:49.861Z,81.72
2023-07-18T04:57:49.898Z,81.68
2023-07-18T04:58:49.968Z,81.68
2023-07-18T04:59:50.058Z,81.78
2023-07-18T05:00:50.171Z,81.68
2023-07-18T05:01:50.289Z,81.68
2023-07-18T05:02:50.350Z,81.78
2023-07-18T05:03:57.761Z,81.78
2023-07-18T05:04:50.515Z,81.78
2023-07-18T05:05:50.577Z,81.74
2023-07-18T05:06:50.637Z,81.74
2023-07-18T05:07:50.719Z,81.74
2023-07-18T05:08:50.796Z,81.85
2023-07-18T05:09:50.878Z,81.85
2023-07-18T05:10:50.993Z,81.71
2023-07-18T05:11:51.017Z,81.71
2023-07-18T05:12:51.120Z,81.60
2023-07-18T05:13:51.213Z,81.50
2023-07-18T05:14:51.301Z,81.40
2023-07-18T05:15:51.405Z,81.30
2023-07-18T05:16:51.464Z,81.10
2023-07-18T05:17:51.585Z,81.06
2023-07-18T05:18:51.595Z,81.46
2023-07-18T05:19:51.655Z,81.46
2023-07-18T05:20:51.758Z,81.57
2023-07-18T05:21:51.836Z,81.46
2023-07-18T05:22:51.936Z,81.57
2023-07-18T05:23:52.008Z,81.77
2023-07-18T05:24:52.089Z,81.87
2023-07-18T05:25:52.180Z,81.77
2023-07-18T05:26:52.253Z,81.63
2023-07-18T05:27:52.318Z,81.73
2023-07-18T05:28:52.401Z,81.63
2023-07-18T05:29:52.475Z,81.52
2023-07-18T05:30:52.616Z,81.12
2023-07-18T05:31:52.670Z,80.98
2023-07-18T05:32:52.773Z,80.47
2023-07-18T05:33:52.843Z,79.87
2023-07-18T05:34:52.934Z,80.07
2023-07-18T05:35:53.015Z,80.07
2023-07-18T05:36:53.092Z,80.04
2023-07-18T05:37:53.189Z,79.83
2023-07-18T05:38:53.243Z,79.73
2023-07-18T05:39:53.308Z,79.59
2023-07-18T05:40:53.455Z,79.29
2023-07-18T05:41:53.478Z,78.88
2023-07-18T05:42:53.546Z,78.04
2023-07-18T05:43:53.605Z,77.53
2023-07-18T05:44:53.703Z,77.39
2023-07-18T05:45:53.868Z,77.19
2023-07-18T05:46:53.875Z,77.15
2023-07-18T05:47:53.925Z,76.92
2023-07-18T05:48:54.023Z,76.38
2023-07-18T05:49:54.108Z,75.84
2023-07-18T05:50:54.207Z,75.20
2023-07-18T05:51:54.255Z,74.66
2023-07-18T05:52:54.348Z,74.35
2023-07-18T05:53:54.430Z,74.32
2023-07-18T05:54:54.540Z,73.72
2023-07-18T05:55:54.622Z,72.67
2023-07-18T05:56:54.659Z,72.24
2023-07-18T05:57:54.733Z,72.14
2023-07-18T05:58:54.810Z,71.90
2023-07-18T05:59:54.870Z,71.90
2023-07-18T06:00:55.092Z,70.79
2023-07-18T06:01:55.064Z,71.09
2023-07-18T06:02:58.365Z,71.23
2023-07-18T06:03:55.232Z,71.83
2023-07-18T06:04:55.258Z,72.24
2023-07-18T06:05:55.347Z,72.34
2023-07-18T06:06:55.394Z,71.94
2023-07-18T06:07:55.473Z,71.80
2023-07-18T06:08:55.562Z,71.40
2023-07-18T06:09:55.660Z,71.00
2023-07-18T06:10:55.913Z,71.20
2023-07-18T06:11:55.853Z,70.50
2023-07-18T06:12:55.947Z,70.79
2023-07-18T06:13:56.020Z,71.20
2023-07-18T06:14:56.055Z,69.69
2023-07-18T06:15:56.202Z,69.49
2023-07-18T06:16:56.286Z,69.49
2023-07-18T06:17:56.388Z,69.18
2023-07-18T06:18:56.414Z,68.98
2023-07-18T06:19:56.507Z,68.98
2023-07-18T06:20:56.585Z,68.98
2023-07-18T06:21:56.662Z,68.59
2023-07-18T06:22:56.814Z,69.09
2023-07-18T06:24:04.749Z,69.29
2023-07-18T06:24:56.915Z,69.09
2023-07-18T06:25:57.029Z,69.25
2023-07-18T06:26:57.081Z,69.45
2023-07-18T06:27:57.183Z,69.06
2023-07-18T06:28:57.246Z,69.25
2023-07-18T06:29:57.356Z,68.95
2023-07-18T06:30:57.456Z,68.85
2023-07-18T06:31:57.493Z,67.94
2023-07-18T06:32:57.614Z,68.05
2023-07-18T06:33:57.632Z,68.15
2023-07-18T06:35:00.889Z,68.02
2023-07-18T06:35:57.867Z,67.91
2023-07-18T06:36:57.873Z,67.71
2023-07-18T06:37:57.973Z,67.71
2023-07-18T06:38:58.062Z,67.31
2023-07-18T06:39:58.155Z,66.61
2023-07-18T06:40:58.238Z,67.11
2023-07-18T06:41:58.331Z,67.01
2023-07-18T06:42:58.418Z,66.98
2023-07-18T06:43:58.511Z,66.58
2023-07-18T06:44:58.595Z,66.14
2023-07-18T06:45:58.705Z,65.84
2023-07-18T06:46:58.773Z,65.81
2023-07-18T06:47:58.890Z,65.11
2023-07-18T06:48:58.921Z,64.81
2023-07-18T06:49:59.025Z,64.40
2023-07-18T06:50:59.117Z,64.28
2023-07-18T06:51:59.211Z,64.04
2023-07-18T06:52:59.300Z,63.64
2023-07-18T06:53:59.419Z,63.24
2023-07-18T06:54:59.463Z,62.84
2023-07-18T06:55:59.571Z,62.71
2023-07-18T06:56:59.648Z,61.58
2023-07-18T06:57:59.707Z,61.18
2023-07-18T06:58:59.783Z,60.85
2023-07-18T06:59:59.868Z,60.32
2023-07-18T07:00:59.991Z,60.10
2023-07-18T07:02:00.066Z,59.56
2023-07-18T07:03:00.205Z,59.27
2023-07-18T07:04:00.254Z,57.97
2023-07-18T07:05:00.290Z,57.14
2023-07-18T07:06:00.388Z,57.54
2023-07-18T07:07:00.460Z,56.91
2023-07-18T07:08:00.538Z,56.68
2023-07-18T07:09:00.634Z,56.46
2023-07-18T07:10:00.736Z,55.96
2023-07-18T07:11:00.822Z,56.06
2023-07-18T07:12:00.884Z,55.86
2023-07-18T07:13:00.940Z,56.16
2023-07-18T07:14:01.047Z,55.93
2023-07-18T07:15:01.105Z,56.06
2023-07-18T07:16:01.198Z,55.06
2023-07-18T07:17:01.275Z,55.09
2023-07-18T07:18:01.373Z,53.59
2023-07-18T07:19:01.416Z,53.27
2023-07-18T07:20:01.516Z,53.27
2023-07-18T07:21:01.590Z,53.17
2023-07-18T07:22:01.665Z,53.27
2023-07-18T07:23:01.830Z,53.66
2023-07-18T07:24:01.848Z,54.36
2023-07-18T07:25:01.900Z,54.44
2023-07-18T07:26:01.994Z,52.74
2023-07-18T07:27:02.069Z,53.24
2023-07-18T07:28:02.161Z,53.22
2023-07-18T07:29:02.238Z,52.69
2023-07-18T07:30:02.304Z,52.39
2023-07-18T07:31:02.598Z,52.17
2023-07-18T07:32:02.495Z,51.95
2023-07-18T07:33:02.564Z,51.03
2023-07-18T07:34:02.664Z,50.20
2023-07-18T07:35:02.742Z,49.91
2023-07-18T07:36:02.817Z,49.49
2023-07-18T07:37:02.881Z,49.66
2023-07-18T07:38:02.981Z,49.34
2023-07-18T07:39:03.037Z,48.94
2023-07-18T07:40:03.133Z,49.36
2023-07-18T07:41:03.206Z,49.56
2023-07-18T07:42:03.303Z,48.50
2023-07-18T07:43:03.367Z,47.16
2023-07-18T07:44:03.435Z,46.86
2023-07-18T07:45:03.513Z,47.26
2023-07-18T07:46:03.662Z,46.12
2023-07-18T07:47:03.674Z,46.37
2023-07-18T07:48:03.785Z,45.73
2023-07-18T07:49:05.680Z,44.87
2023-07-18T07:50:03.909Z,42.64
2023-07-18T07:51:03.972Z,42.54
2023-07-18T07:52:04.064Z,42.20
2023-07-18T07:53:04.148Z,42.54
2023-07-18T07:54:04.208Z,41.73
2023-07-18T07:55:04.297Z,42.13
2023-07-18T07:56:04.409Z,42.34
2023-07-18T07:57:04.465Z,41.93
2023-07-18T07:58:04.546Z,40.80
2023-07-18T07:59:11.130Z,40.27
2023-07-18T08:00:04.677Z,39.60
2023-07-18T08:01:04.767Z,40.29
2023-07-18T08:02:04.893Z,40.70
2023-07-18T08:03:04.991Z,41.22
2023-07-18T08:04:05.103Z,41.12
2023-07-18T08:05:05.176Z,41.30
2023-07-18T08:06:05.187Z,40.78
2023-07-18T08:07:05.246Z,39.47
2023-07-18T08:08:05.330Z,38.62
2023-07-18T08:09:05.438Z,37.68
2023-07-18T08:10:05.499Z,36.18
2023-07-18T08:11:05.578Z,36.19
2023-07-18T08:12:05.656Z,36.51
2023-07-18T08:13:05.771Z,36.80
2023-07-18T08:14:05.793Z,37.19
2023-07-18T08:15:05.915Z,36.88
2023-07-18T08:16:06.007Z,37.40
2023-07-18T08:17:06.046Z,38.01
2023-07-18T08:18:06.121Z,38.82
2023-07-18T08:19:06.200Z,39.25
2023-07-18T08:20:07.888Z,39.39
2023-07-18T08:21:06.395Z,39.92
2023-07-18T08:22:06.450Z,40.53
2023-07-18T08:23:06.641Z,39.89
2023-07-18T08:24:06.618Z,39.28
2023-07-18T08:25:06.697Z,40.01
2023-07-18T08:26:06.764Z,39.79
2023-07-18T08:27:06.816Z,39.74
2023-07-18T08:28:06.925Z,38.95
2023-07-18T08:29:07.015Z,39.70
2023-07-18T08:30:07.066Z,40.80
2023-07-18T08:31:07.185Z,40.98
2023-07-18T08:32:07.304Z,39.87
2023-07-18T08:33:07.388Z,39.26
2023-07-18T08:34:07.400Z,39.23
2023-07-18T08:35:07.456Z,37.13
2023-07-18T08:36:07.540Z,36.70
2023-07-18T08:37:07.658Z,35.99
2023-07-18T08:38:07.701Z,35.29
2023-07-18T08:39:11.993Z,35.55
2023-07-18T08:40:07.843Z,33.94
2023-07-18T08:41:07.952Z,33.48
2023-07-18T08:42:08.058Z,34.21
2023-07-18T08:43:08.102Z,34.20
2023-07-18T08:44:08.176Z,34.16
2023-07-18T08:45:08.270Z,33.43
2023-07-18T08:46:08.403Z,33.01
2023-07-18T08:47:08.401Z,32.34
2023-07-18T08:48:08.557Z,32.95
2023-07-18T08:49:08.576Z,33.46
2023-07-18T08:50:08.723Z,33.56
2023-07-18T08:51:08.797Z,33.17
2023-07-18T08:52:08.820Z,33.98
2023-07-18T08:53:08.902Z,34.10
2023-07-18T08:54:08.957Z,35.41
2023-07-18T08:55:09.050Z,35.49
2023-07-18T08:56:09.128Z,34.59
2023-07-18T08:57:09.188Z,33.69
2023-07-18T08:58:09.269Z,34.26
2023-07-18T08:59:09.328Z,33.74
2023-07-18T09:00:09.410Z,32.42
2023-07-18T09:01:09.486Z,31.48
2023-07-18T09:02:09.594Z,31.28
2023-07-18T09:03:09.650Z,31.41
2023-07-18T09:04:09.720Z,32.01
2023-07-18T09:05:09.769Z,32.55
2023-07-18T09:06:09.873Z,32.27
2023-07-18T09:07:09.894Z,32.48
2023-07-18T09:08:09.997Z,32.37
2023-07-18T09:09:10.048Z,32.10
2023-07-18T09:10:10.152Z,33.31
2023-07-18T09:11:10.228Z,33.92
2023-07-18T09:12:10.308Z,33.84
2023-07-18T09:13:10.389Z,33.95
2023-07-18T09:14:10.428Z,33.84
2023-07-18T09:15:10.494Z,33.34
2023-07-18T09:16:10.574Z,33.33
2023-07-18T09:17:10.707Z,32.89
2023-07-18T09:18:10.815Z,31.88
2023-07-18T09:19:10.829Z,31.54
2023-07-18T09:20:10.903Z,30.16
2023-07-18T09:21:10.996Z,30.32
2023-07-18T09:22:11.048Z,30.00
2023-07-18T09:23:11.305Z,28.90
2023-07-18T09:24:11.203Z,29.00
2023-07-18T09:25:11.279Z,28.92
2023-07-18T09:26:11.352Z,29.22
2023-07-18T09:27:11.428Z,29.64
2023-07-18T09:28:11.499Z,29.96
2023-07-18T09:29:11.557Z,30.97
2023-07-18T09:30:11.620Z,30.79
2023-07-18T09:31:11.765Z,30.82
2023-07-18T09:32:11.833Z,33.02
2023-07-18T09:33:11.929Z,33.25
2023-07-18T09:34:11.990Z,33.75
2023-07-18T09:35:12.098Z,33.75
2023-07-18T09:36:12.165Z,34.05
2023-07-18T09:37:12.225Z,33.85
2023-07-18T09:38:12.292Z,34.16
2023-07-18T09:39:12.357Z,34.58
2023-07-18T09:40:12.421Z,34.67
2023-07-18T09:42:13.669Z,33.62
2023-07-18T09:43:12.710Z,33.39
2023-07-18T09:44:26.966Z,32.48
2023-07-18T09:45:12.878Z,32.95
2023-07-18T09:46:13.011Z,32.26
2023-07-18T09:47:13.027Z,31.98
2023-07-18T09:48:13.123Z,31.80
2023-07-18T09:49:14.819Z,32.01
2023-07-18T09:50:13.275Z,32.61
2023-07-18T09:51:13.376Z,33.22
2023-07-18T09:52:13.417Z,33.31
2023-07-18T09:53:13.545Z,33.33
2023-07-18T09:54:13.582Z,33.43
2023-07-18T09:55:13.678Z,33.25
2023-07-18T09:56:13.784Z,33.15
2023-07-18T09:57:13.902Z,33.54
2023-07-18T09:58:13.900Z,33.85
2023-07-18T09:59:13.974Z,34.36
2023-07-18T10:00:14.039Z,34.77
2023-07-18T10:01:14.201Z,35.08
2023-07-18T10:02:14.214Z,35.80
2023-07-18T10:03:14.390Z,35.90
2023-07-18T10:04:14.377Z,35.51
2023-07-18T10:05:14.512Z,35.72
2023-07-18T10:06:16.178Z,35.82
2023-07-18T10:07:14.646Z,36.22
2023-07-18T10:08:14.706Z,36.41
2023-07-18T10:09:14.809Z,36.61
2023-07-18T10:10:14.875Z,36.41
2023-07-18T10:11:14.950Z,37.02
2023-07-18T10:12:15.004Z,36.74
2023-07-18T10:13:16.934Z,36.94
2023-07-18T10:14:15.165Z,36.66
2023-07-18T10:15:15.231Z,37.57
2023-07-18T10:16:15.401Z,37.98
2023-07-18T10:17:15.470Z,38.29
2023-07-18T10:18:15.513Z,38.89
2023-07-18T10:19:15.589Z,38.69
2023-07-18T10:20:15.657Z,39.50
2023-07-18T10:21:15.748Z,38.71
2023-07-18T10:22:15.801Z,38.61
2023-07-18T10:23:15.952Z,38.61
2023-07-18T10:24:15.992Z,38.61
2023-07-18T10:25:16.076Z,38.51
2023-07-18T10:26:16.164Z,38.31
2023-07-18T10:27:16.231Z,38.73
2023-07-18T10:28:16.301Z,39.12
2023-07-18T10:29:16.365Z,39.12
2023-07-18T10:30:16.495Z,38.73
2023-07-18T10:31:16.606Z,38.92
2023-07-18T10:32:16.624Z,39.72
2023-07-18T10:33:16.737Z,39.34
2023-07-18T10:34:16.787Z,39.75
2023-07-18T10:35:16.871Z,40.66
2023-07-18T10:36:16.939Z,41.25
2023-07-18T10:37:17.070Z,40.26
2023-07-18T10:38:17.074Z,39.97
2023-07-18T10:39:17.161Z,40.26
2023-07-18T10:40:17.228Z,40.17
2023-07-18T10:41:17.477Z,39.97
2023-07-18T10:42:17.370Z,40.26
2023-07-18T10:43:17.597Z,40.47
2023-07-18T10:44:17.536Z,40.37
2023-07-18T10:45:17.606Z,40.47
2023-07-18T10:46:17.732Z,40.76
2023-07-18T10:47:17.973Z,40.76
2023-07-18T10:48:17.881Z,40.56
2023-07-18T10:49:17.875Z,40.47
2023-07-18T10:50:20.178Z,40.84
2023-07-18T10:51:18.257Z,40.84
2023-07-18T10:52:18.111Z,40.64
2023-07-18T10:53:18.178Z,39.46
2023-07-18T10:54:18.247Z,40.96
2023-07-18T10:55:18.331Z,40.26
2023-07-18T10:56:18.413Z,39.95
2023-07-18T10:57:18.477Z,39.85
2023-07-18T10:58:18.548Z,40.34
2023-07-18T10:59:18.619Z,40.03
2023-07-18T11:00:18.720Z,39.62
2023-07-18T11:01:19.260Z,39.70
2023-07-18T11:02:18.890Z,38.49
2023-07-18T11:03:18.938Z,37.98
2023-07-18T11:04:19.086Z,37.59
2023-07-18T11:05:19.075Z,37.59
2023-07-18T11:06:19.173Z,38.35
2023-07-18T11:07:19.207Z,38.56
2023-07-18T11:08:19.274Z,37.95
2023-07-18T11:09:21.472Z,37.65
2023-07-18T11:10:19.413Z,37.14
2023-07-18T11:11:20.035Z,36.55
2023-07-18T11:12:19.582Z,35.96
2023-07-18T11:13:19.616Z,36.15
2023-07-18T11:14:19.689Z,36.45
2023-07-18T11:15:19.763Z,35.84
2023-07-18T11:16:19.873Z,37.34
2023-07-18T11:17:19.915Z,37.04
2023-07-18T11:18:19.983Z,36.96
2023-07-18T11:19:20.061Z,37.26
2023-07-18T11:20:20.122Z,37.15
2023-07-18T11:21:20.796Z,37.45
2023-07-18T11:22:20.260Z,37.63
2023-07-18T11:23:20.336Z,37.14
2023-07-18T11:24:20.403Z,37.14
2023-07-18T11:25:20.469Z,37.91
2023-07-18T11:26:20.583Z,36.23
2023-07-18T11:27:20.669Z,36.90
2023-07-18T11:28:20.778Z,36.99
2023-07-18T11:29:20.796Z,36.88
2023-07-18T11:30:20.886Z,36.47
2023-07-18T11:31:30.680Z,35.30
2023-07-18T11:32:21.065Z,35.00
2023-07-18T11:33:21.116Z,35.10
2023-07-18T11:34:21.210Z,35.10
2023-07-18T11:35:21.280Z,35.31
2023-07-18T11:36:21.350Z,35.31
2023-07-18T11:37:21.398Z,35.71
2023-07-18T11:38:21.503Z,35.61
2023-07-18T11:39:22.132Z,36.41
2023-07-18T11:40:21.654Z,36.02
2023-07-18T11:41:21.722Z,36.82
2023-07-18T11:42:21.784Z,37.83
2023-07-18T11:43:21.870Z,37.74
2023-07-18T11:44:21.921Z,37.74
2023-07-18T11:45:21.987Z,37.96
2023-07-18T11:46:22.112Z,37.45
2023-07-18T11:47:22.182Z,37.55
2023-07-18T11:48:22.319Z,37.37
2023-07-18T11:49:22.339Z,37.98
2023-07-18T11:50:22.410Z,37.98
2023-07-18T11:51:22.492Z,38.59
2023-07-18T11:52:22.557Z,38.77
2023-07-18T11:53:22.639Z,38.57
2023-07-18T11:54:22.724Z,38.77
2023-07-18T11:55:22.781Z,39.26
2023-07-18T11:56:24.960Z,38.87
2023-07-18T11:57:22.932Z,38.28
2023-07-18T11:58:23.026Z,38.08
2023-07-18T11:59:23.095Z,38.18
2023-07-18T12:00:23.154Z,38.59
2023-07-18T12:01:23.426Z,37.70
2023-07-18T12:02:25.565Z,38.20
2023-07-18T12:03:23.437Z,38.41
2023-07-18T12:04:23.481Z,38.21
2023-07-18T12:05:25.977Z,38.81
2023-07-18T12:06:23.621Z,38.02
2023-07-18T12:07:23.636Z,38.00
2023-07-18T12:08:25.922Z,38.10
2023-07-18T12:09:23.851Z,38.00
2023-07-18T12:10:26.078Z,37.60
2023-07-18T12:11:24.247Z,38.00
2023-07-18T12:12:24.029Z,38.00
2023-07-18T12:13:24.091Z,39.87
2023-07-18T12:14:24.196Z,37.88
2023-07-18T12:15:24.258Z,38.47
2023-07-18T12:16:24.383Z,38.16
2023-07-18T12:17:24.451Z,37.27
2023-07-18T12:18:24.503Z,36.96
2023-07-18T12:19:24.594Z,37.15
2023-07-18T12:20:24.628Z,36.66
2023-07-18T12:21:24.707Z,36.96
2023-07-18T12:22:24.762Z,36.98
2023-07-18T12:23:24.822Z,37.07
2023-07-18T12:24:24.905Z,36.78
2023-07-18T12:25:24.964Z,37.62
2023-07-18T12:26:26.000Z,38.04
2023-07-18T12:27:25.123Z,39.03
2023-07-18T12:28:25.240Z,38.43
2023-07-18T12:29:25.297Z,38.92
2023-07-18T12:30:25.387Z,37.72
2023-07-18T12:31:25.868Z,38.21
2023-07-18T12:32:29.110Z,38.51
2023-07-18T12:33:25.622Z,38.39
2023-07-18T12:34:25.688Z,38.39
2023-07-18T12:35:25.742Z,37.88
2023-07-18T12:36:25.890Z,37.49
2023-07-18T12:37:25.900Z,37.29
2023-07-18T12:38:28.262Z,37.68
2023-07-18T12:39:26.036Z,37.29
2023-07-18T12:40:26.151Z,37.09
2023-07-18T12:41:26.191Z,37.09
2023-07-18T12:42:26.258Z,37.19
2023-07-18T12:43:26.345Z,36.88
2023-07-18T12:44:28.095Z,36.29
2023-07-18T12:45:26.497Z,37.09
2023-07-18T12:46:26.693Z,38.29
2023-07-18T12:47:26.648Z,38.00
2023-07-18T12:48:26.710Z,37.90
2023-07-18T12:50:27.706Z,38.47
2023-07-18T12:51:26.974Z,38.26
2023-07-18T12:52:27.039Z,37.57
2023-07-18T12:53:27.098Z,37.37
2023-07-18T12:54:27.193Z,37.55
2023-07-18T12:55:27.302Z,37.95